sensor_id;sensor_type;location;lat;lon;timestamp;temperature;humidity
10441;DHT22;5268;49.346;9.522;2023-07-20T03:10:08;18.00;92.40
10441;DHT22;5268;49.346;9.522;2023-07-20T03:15:10;17.90;92.40
10441;DHT22;5268;49.346;9.522;2023-07-20T03:20:12;17.80;92.60
10441;DHT22;5268;49.346;9.522;2023-07-20T03:25:16;17.70;92.30
10441;DHT22;5268;49.346;9.522;2023-07-20T03:30:18;17.60;92.00
10441;DHT22;5268;49.346;9.522;2023-07-20T03:35:20;17.50;92.10
10441;DHT22;5268;49.346;9.522;2023-07-20T03:40:24;17.40;92.20
10441;DHT22;5268;49.346;9.522;2023-07-20T03:45:26;17.30;92.30
10441;DHT22;5268;49.346;9.522;2023-07-20T03:50:27;17.30;92.30
10441;DHT22;5268;49.346;9.522;2023-07-20T03:55:31;17.20;92.40
10441;DHT22;5268;49.346;9.522;2023-07-20T04:00:33;17.10;92.20
10441;DHT22;5268;49.346;9.522;2023-07-20T04:05:36;17.10;92.30
10441;DHT22;5268;49.346;9.522;2023-07-20T04:10:39;17.10;93.60
10441;DHT22;5268;49.346;9.522;2023-07-20T04:15:44;17.10;92.90
10441;DHT22;5268;49.346;9.522;2023-07-20T04:20:46;17.00;92.70
10441;DHT22;5268;49.346;9.522;2023-07-20T04:26:05;17.00;94.00
10441;DHT22;5268;49.346;9.522;2023-07-20T04:31:10;17.00;93.90
10441;DHT22;5268;49.346;9.522;2023-07-20T04:36:15;17.00;92.80
10441;DHT22;5268;49.346;9.522;2023-07-20T04:41:21;17.00;92.70
10441;DHT22;5268;49.346;9.522;2023-07-20T04:46:25;17.00;92.80
10441;DHT22;5268;49.346;9.522;2023-07-20T04:51:27;17.00;94.00
10441;DHT22;5268;49.346;9.522;2023-07-20T04:56:32;17.00;93.20
10441;DHT22;5268;49.346;9.522;2023-07-20T05:01:34;17.00;94.30
10441;DHT22;5268;49.346;9.522;2023-07-20T05:06:36;17.00;93.10
10441;DHT22;5268;49.346;9.522;2023-07-20T05:11:40;17.10;92.80
10441;DHT22;5268;49.346;9.522;2023-07-20T05:16:42;17.10;93.30
10441;DHT22;5268;49.346;9.522;2023-07-20T05:21:45;17.20;93.20
10441;DHT22;5268;49.346;9.522;2023-07-20T05:26:48;17.50;93.50
10441;DHT22;5268;49.346;9.522;2023-07-20T05:31:51;17.80;94.30
10441;DHT22;5268;49.346;9.522;2023-07-20T05:36:53;18.60;94.50
10441;DHT22;5268;49.346;9.522;2023-07-20T05:41:57;19.30;94.50
10441;DHT22;5268;49.346;9.522;2023-07-20T05:46:59;19.90;94.20
10441;DHT22;5268;49.346;9.522;2023-07-20T05:52:01;20.30;93.40
10441;DHT22;5268;49.346;9.522;2023-07-20T05:57:05;20.40;92.80
10441;DHT22;5268;49.346;9.522;2023-07-20T06:02:07;20.30;93.30
10441;DHT22;5268;49.346;9.522;2023-07-20T06:07:09;20.30;92.70
10441;DHT22;5268;49.346;9.522;2023-07-20T06:12:13;20.30;93.20
10441;DHT22;5268;49.346;9.522;2023-07-20T06:17:15;20.40;93.40
10441;DHT22;5268;49.346;9.522;2023-07-20T06:22:18;20.60;93.60
10441;DHT22;5268;49.346;9.522;2023-07-20T06:27:21;20.80;93.40
10441;DHT22;5268;49.346;9.522;2023-07-20T06:32:23;21.00;93.50
10441;DHT22;5268;49.346;9.522;2023-07-20T06:37:25;21.20;93.60
10441;DHT22;5268;49.346;9.522;2023-07-20T06:42:29;21.40;93.40
10441;DHT22;5268;49.346;9.522;2023-07-20T06:47:31;21.70;93.00
10441;DHT22;5268;49.346;9.522;2023-07-20T06:52:34;21.70;93.10
10441;DHT22;5268;49.346;9.522;2023-07-20T06:57:37;21.70;92.90
10441;DHT22;5268;49.346;9.522;2023-07-20T07:02:39;21.90;92.80
10441;DHT22;5268;49.346;9.522;2023-07-20T07:07:41;22.30;92.70
10441;DHT22;5268;49.346;9.522;2023-07-20T07:12:45;22.50;92.30
10441;DHT22;5268;49.346;9.522;2023-07-20T07:17:46;22.60;92.40
10441;DHT22;5268;49.346;9.522;2023-07-20T07:22:50;22.70;92.40
10441;DHT22;5268;49.346;9.522;2023-07-20T07:27:55;22.80;92.30
10441;DHT22;5268;49.346;9.522;2023-07-20T07:32:57;22.90;92.20
10441;DHT22;5268;49.346;9.522;2023-07-20T07:37:59;22.90;92.00
10441;DHT22;5268;49.346;9.522;2023-07-20T07:43:02;23.00;92.20
10441;DHT22;5268;49.346;9.522;2023-07-20T07:48:05;23.20;92.20
10441;DHT22;5268;49.346;9.522;2023-07-20T07:53:07;23.50;92.30
10441;DHT22;5268;49.346;9.522;2023-07-20T07:58:11;23.80;92.20
10441;DHT22;5268;49.346;9.522;2023-07-20T08:03:14;24.20;92.00
10441;DHT22;5268;49.346;9.522;2023-07-20T08:08:17;24.50;91.90
10441;DHT22;5268;49.346;9.522;2023-07-20T08:13:21;24.80;90.80
10441;DHT22;5268;49.346;9.522;2023-07-20T08:18:23;24.80;91.10
10441;DHT22;5268;49.346;9.522;2023-07-20T08:23:25;24.80;90.40
10441;DHT22;5268;49.346;9.522;2023-07-20T08:28:30;25.00;90.80
10441;DHT22;5268;49.346;9.522;2023-07-20T08:33:32;25.40;90.80
10441;DHT22;5268;49.346;9.522;2023-07-20T08:38:34;25.50;89.80
10441;DHT22;5268;49.346;9.522;2023-07-20T08:43:38;25.60;90.30
10441;DHT22;5268;49.346;9.522;2023-07-20T08:48:43;25.70;87.90
10441;DHT22;5268;49.346;9.522;2023-07-20T08:53:47;26.00;88.70
10441;DHT22;5268;49.346;9.522;2023-07-20T08:58:52;26.30;87.90
10441;DHT22;5268;49.346;9.522;2023-07-20T09:03:54;26.50;88.30
10441;DHT22;5268;49.346;9.522;2023-07-20T09:08:57;26.60;88.40
10441;DHT22;5268;49.346;9.522;2023-07-20T09:14:04;26.40;85.70
10441;DHT22;5268;49.346;9.522;2023-07-20T09:19:07;26.20;84.70
10441;DHT22;5268;49.346;9.522;2023-07-20T09:24:10;26.40;86.20
10441;DHT22;5268;49.346;9.522;2023-07-20T09:29:14;26.70;85.80
10441;DHT22;5268;49.346;9.522;2023-07-20T09:34:17;27.00;84.50
10441;DHT22;5268;49.346;9.522;2023-07-20T09:39:20;27.00;81.30
10441;DHT22;5268;49.346;9.522;2023-07-20T09:44:24;27.00;81.30
10441;DHT22;5268;49.346;9.522;2023-07-20T09:49:26;27.10;81.10
10441;DHT22;5268;49.346;9.522;2023-07-20T09:54:28;27.20;80.10
10441;DHT22;5268;49.346;9.522;2023-07-20T09:59:32;27.20;82.60
10441;DHT22;5268;49.346;9.522;2023-07-20T10:04:34;27.50;82.30
10441;DHT22;5268;49.346;9.522;2023-07-20T10:09:39;27.70;82.00
10441;DHT22;5268;49.346;9.522;2023-07-20T10:14:48;27.80;80.60
10441;DHT22;5268;49.346;9.522;2023-07-20T10:19:56;27.50;79.00
10441;DHT22;5268;49.346;9.522;2023-07-20T10:25:01;27.20;81.00
10441;DHT22;5268;49.346;9.522;2023-07-20T10:30:07;27.40;78.10
10441;DHT22;5268;49.346;9.522;2023-07-20T10:35:13;27.50;78.60
10441;DHT22;5268;49.346;9.522;2023-07-20T10:40:30;27.50;79.60
10441;DHT22;5268;49.346;9.522;2023-07-20T10:45:48;27.40;75.60
10441;DHT22;5268;49.346;9.522;2023-07-20T10:51:19;27.70;78.50
10441;DHT22;5268;49.346;9.522;2023-07-20T10:56:22;28.00;79.00
10441;DHT22;5268;49.346;9.522;2023-07-20T11:01:28;28.20;77.10
10441;DHT22;5268;49.346;9.522;2023-07-20T11:06:33;28.10;78.10
10441;DHT22;5268;49.346;9.522;2023-07-20T11:11:36;27.80;77.90
10441;DHT22;5268;49.346;9.522;2023-07-20T11:16:41;27.80;77.70
10441;DHT22;5268;49.346;9.522;2023-07-20T11:21:46;27.90;79.30
10441;DHT22;5268;49.346;9.522;2023-07-20T11:26:49;28.20;76.40
10441;DHT22;5268;49.346;9.522;2023-07-20T11:31:52;28.10;73.40
10441;DHT22;5268;49.346;9.522;2023-07-20T11:36:55;28.30;76.70
10441;DHT22;5268;49.346;9.522;2023-07-20T11:41:57;28.60;77.30
10441;DHT22;5268;49.346;9.522;2023-07-20T11:47:05;28.80;77.60
10441;DHT22;5268;49.346;9.522;2023-07-20T11:52:08;28.90;76.60
10441;DHT22;5268;49.346;9.522;2023-07-20T11:57:16;28.60;67.90
10441;DHT22;5268;49.346;9.522;2023-07-20T12:02:20;28.50;73.10
10441;DHT22;5268;49.346;9.522;2023-07-20T12:07:22;28.60;73.00
10441;DHT22;5268;49.346;9.522;2023-07-20T12:12:25;28.80;75.20
10441;DHT22;5268;49.346;9.522;2023-07-20T12:17:28;28.80;75.30
10441;DHT22;5268;49.346;9.522;2023-07-20T12:22:30;28.60;74.00
10441;DHT22;5268;49.346;9.522;2023-07-20T12:27:33;28.20;75.20
10441;DHT22;5268;49.346;9.522;2023-07-20T12:32:38;28.10;73.80
10441;DHT22;5268;49.346;9.522;2023-07-20T12:37:40;28.20;75.20
10441;DHT22;5268;49.346;9.522;2023-07-20T12:42:42;28.30;74.60
10441;DHT22;5268;49.346;9.522;2023-07-20T12:47:46;28.30;72.00
10441;DHT22;5268;49.346;9.522;2023-07-20T12:52:48;28.20;74.00
10441;DHT22;5268;49.346;9.522;2023-07-20T12:57:50;28.10;74.70
10441;DHT22;5268;49.346;9.522;2023-07-20T13:02:54;28.00;74.60
10441;DHT22;5268;49.346;9.522;2023-07-20T13:07:57;28.30;75.30
10441;DHT22;5268;49.346;9.522;2023-07-20T13:12:59;28.50;73.50
10441;DHT22;5268;49.346;9.522;2023-07-20T13:18:03;28.40;72.80
10441;DHT22;5268;49.346;9.522;2023-07-20T13:23:05;28.60;73.00
10441;DHT22;5268;49.346;9.522;2023-07-20T13:28:08;28.60;72.00
10441;DHT22;5268;49.346;9.522;2023-07-20T13:33:11;28.70;73.60
10441;DHT22;5268;49.346;9.522;2023-07-20T13:38:13;28.80;73.80
10441;DHT22;5268;49.346;9.522;2023-07-20T13:43:15;28.80;70.90
10441;DHT22;5268;49.346;9.522;2023-07-20T13:48:18;28.70;71.20
10441;DHT22;5268;49.346;9.522;2023-07-20T13:53:23;28.60;72.60
10441;DHT22;5268;49.346;9.522;2023-07-20T13:58:25;28.40;73.90
10441;DHT22;5268;49.346;9.522;2023-07-20T14:03:28;28.50;73.00
10441;DHT22;5268;49.346;9.522;2023-07-20T14:08:30;28.60;73.30
10441;DHT22;5268;49.346;9.522;2023-07-20T14:13:33;28.60;72.90
10441;DHT22;5268;49.346;9.522;2023-07-20T14:18:36;28.70;67.50
10441;DHT22;5268;49.346;9.522;2023-07-20T14:23:38;28.60;70.10
10441;DHT22;5268;49.346;9.522;2023-07-20T14:28:40;28.60;71.50
10441;DHT22;5268;49.346;9.522;2023-07-20T14:33:43;28.40;68.80
10441;DHT22;5268;49.346;9.522;2023-07-20T14:38:45;28.00;68.50
10441;DHT22;5268;49.346;9.522;2023-07-20T14:43:47;27.90;69.10
10441;DHT22;5268;49.346;9.522;2023-07-20T14:48:51;28.10;69.40
10441;DHT22;5268;49.346;9.522;2023-07-20T14:53:53;28.20;70.50
10441;DHT22;5268;49.346;9.522;2023-07-20T14:58:55;28.40;70.40
10441;DHT22;5268;49.346;9.522;2023-07-20T15:04:00;28.30;69.40
10441;DHT22;5268;49.346;9.522;2023-07-20T15:09:02;28.20;69.60
10441;DHT22;5268;49.346;9.522;2023-07-20T15:14:04;28.10;70.80
10441;DHT22;5268;49.346;9.522;2023-07-20T15:19:09;28.00;71.30
10441;DHT22;5268;49.346;9.522;2023-07-20T15:24:14;28.00;71.30
10441;DHT22;5268;49.346;9.522;2023-07-20T15:29:16;28.10;71.20
10441;DHT22;5268;49.346;9.522;2023-07-20T15:34:19;28.10;71.70
10441;DHT22;5268;49.346;9.522;2023-07-20T15:39:21;28.00;71.20
10441;DHT22;5268;49.346;9.522;2023-07-20T15:44:24;27.90;71.60
10441;DHT22;5268;49.346;9.522;2023-07-20T15:49:28;27.70;71.40
10441;DHT22;5268;49.346;9.522;2023-07-20T15:54:30;27.70;71.50
10441;DHT22;5268;49.346;9.522;2023-07-20T15:59:32;27.70;71.30
10441;DHT22;5268;49.346;9.522;2023-07-20T16:04:35;27.70;71.90
10441;DHT22;5268;49.346;9.522;2023-07-20T16:09:38;27.60;72.10
10441;DHT22;5268;49.346;9.522;2023-07-20T16:14:40;27.60;72.30
10441;DHT22;5268;49.346;9.522;2023-07-20T16:19:43;27.50;72.20
10441;DHT22;5268;49.346;9.522;2023-07-20T16:24:45;27.50;71.60
10441;DHT22;5268;49.346;9.522;2023-07-20T16:29:47;27.40;71.60
10441;DHT22;5268;49.346;9.522;2023-07-20T16:34:50;27.30;70.90
10441;DHT22;5268;49.346;9.522;2023-07-20T16:39:52;27.20;71.70
10441;DHT22;5268;49.346;9.522;2023-07-20T16:44:54;27.20;71.60
10441;DHT22;5268;49.346;9.522;2023-07-20T16:49:58;27.10;71.60
10441;DHT22;5268;49.346;9.522;2023-07-20T16:55:00;27.10;71.00
10441;DHT22;5268;49.346;9.522;2023-07-20T17:00:05;27.00;71.30
10441;DHT22;5268;49.346;9.522;2023-07-20T17:05:12;27.00;71.30
10441;DHT22;5268;49.346;9.522;2023-07-20T17:10:14;26.90;71.70
10441;DHT22;5268;49.346;9.522;2023-07-20T17:15:17;26.80;71.70
10441;DHT22;5268;49.346;9.522;2023-07-20T17:20:20;26.80;71.90
10441;DHT22;5268;49.346;9.522;2023-07-20T17:25:22;26.70;71.40
10441;DHT22;5268;49.346;9.522;2023-07-20T17:30:24;26.70;71.90
10441;DHT22;5268;49.346;9.522;2023-07-20T17:35:31;26.60;72.10
10441;DHT22;5268;49.346;9.522;2023-07-20T17:40:33;26.50;72.20
10441;DHT22;5268;49.346;9.522;2023-07-20T17:45:35;26.40;71.90
10441;DHT22;5268;49.346;9.522;2023-07-20T17:50:38;26.40;72.30
10441;DHT22;5268;49.346;9.522;2023-07-20T17:55:40;26.30;72.30
10441;DHT22;5268;49.346;9.522;2023-07-20T18:00:43;26.20;72.90
10441;DHT22;5268;49.346;9.522;2023-07-20T18:05:46;26.20;72.70
10441;DHT22;5268;49.346;9.522;2023-07-20T18:10:48;26.20;73.50
10441;DHT22;5268;49.346;9.522;2023-07-20T18:15:54;26.10;73.60
10441;DHT22;5268;49.346;9.522;2023-07-20T18:20:58;26.00;72.40
10441;DHT22;5268;49.346;9.522;2023-07-20T18:26:00;25.80;73.10
10441;DHT22;5268;49.346;9.522;2023-07-20T18:31:06;25.80;73.70
10441;DHT22;5268;49.346;9.522;2023-07-20T18:36:10;25.70;73.50
10441;DHT22;5268;49.346;9.522;2023-07-20T18:41:12;25.60;73.40
10441;DHT22;5268;49.346;9.522;2023-07-20T18:46:15;25.50;73.20
10441;DHT22;5268;49.346;9.522;2023-07-20T18:51:22;25.40;73.50
10441;DHT22;5268;49.346;9.522;2023-07-20T18:56:24;25.30;73.40
10441;DHT22;5268;49.346;9.522;2023-07-20T19:01:26;25.20;73.60
10441;DHT22;5268;49.346;9.522;2023-07-20T19:06:30;25.00;74.30
10441;DHT22;5268;49.346;9.522;2023-07-20T19:11:32;24.90;74.60
10441;DHT22;5268;49.346;9.522;2023-07-20T19:16:34;24.80;74.60
10441;DHT22;5268;49.346;9.522;2023-07-20T19:21:37;24.60;74.50
10441;DHT22;5268;49.346;9.522;2023-07-20T19:26:39;24.40;75.40
10441;DHT22;5268;49.346;9.522;2023-07-20T19:31:41;24.30;75.40
10441;DHT22;5268;49.346;9.522;2023-07-20T19:36:44;24.20;75.30
10441;DHT22;5268;49.346;9.522;2023-07-20T19:41:49;24.10;75.80
10441;DHT22;5268;49.346;9.522;2023-07-20T19:46:51;23.90;78.20
10441;DHT22;5268;49.346;9.522;2023-07-20T19:51:56;23.80;77.10
10441;DHT22;5268;49.346;9.522;2023-07-20T19:57:01;23.80;78.00
10441;DHT22;5268;49.346;9.522;2023-07-20T20:02:08;23.70;78.20
10441;DHT22;5268;49.346;9.522;2023-07-20T20:07:42;23.70;77.40
10441;DHT22;5268;49.346;9.522;2023-07-20T20:12:52;23.50;77.00
10441;DHT22;5268;49.346;9.522;2023-07-20T20:18:00;23.30;76.50
10441;DHT22;5268;49.346;9.522;2023-07-20T20:23:18;23.40;77.30
10441;DHT22;5268;49.346;9.522;2023-07-20T20:28:24;23.20;79.70
10441;DHT22;5268;49.346;9.522;2023-07-20T20:33:36;23.30;79.60
10441;DHT22;5268;49.346;9.522;2023-07-20T20:38:47;23.20;78.50
10441;DHT22;5268;49.346;9.522;2023-07-20T20:43:50;23.10;78.00
10441;DHT22;5268;49.346;9.522;2023-07-20T20:48:52;23.00;78.00
10441;DHT22;5268;49.346;9.522;2023-07-20T20:53:56;22.80;79.70
10441;DHT22;5268;49.346;9.522;2023-07-20T20:58:58;22.70;78.60
10441;DHT22;5268;49.346;9.522;2023-07-20T21:04:00;22.50;80.00
10441;DHT22;5268;49.346;9.522;2023-07-20T21:09:04;22.10;84.00
10441;DHT22;5268;49.346;9.522;2023-07-20T21:14:11;22.10;81.00
10441;DHT22;5268;49.346;9.522;2023-07-20T21:19:18;22.00;80.30
10441;DHT22;5268;49.346;9.522;2023-07-20T21:24:25;22.10;79.70
10441;DHT22;5268;49.346;9.522;2023-07-20T21:29:27;22.00;80.00
10441;DHT22;5268;49.346;9.522;2023-07-20T21:34:30;21.90;79.30
10441;DHT22;5268;49.346;9.522;2023-07-20T21:39:34;21.80;80.90
10441;DHT22;5268;49.346;9.522;2023-07-20T21:44:39;21.70;82.70
10441;DHT22;5268;49.346;9.522;2023-07-20T21:49:43;21.60;82.00
10441;DHT22;5268;49.346;9.522;2023-07-20T21:54:49;21.60;80.70
